sensor_id;sensor_type;location;lat;lon;timestamp;pressure;altitude;pressure_sealevel;temperature;humidity
55916;BME280;41826;53.246;-6.670;2022-12-11T00:02:11;99359.00;;;-0.15;100.00
55916;BME280;41826;53.246;-6.670;2022-12-11T00:04:36;99353.47;;;-0.22;100.00
55916;BME280;41826;53.246;-6.670;2022-12-11T00:07:01;99354.84;;;-0.41;100.00
55916;BME280;41826;53.246;-6.670;2022-12-11T00:09:27;99354.25;;;-0.45;100.00
55916;BME280;41826;53.246;-6.670;2022-12-11T00:11:52;99350.59;;;-0.30;100.00
55916;BME280;41826;53.246;-6.670;2022-12-11T00:14:18;99359.78;;;-0.38;100.00
55916;BME280;41826;53.246;-6.670;2022-12-11T00:16:46;99353.72;;;-0.37;100.00
55916;BME280;41826;53.246;-6.670;2022-12-11T00:19:11;99349.06;;;-0.32;100.00
55916;BME280;41826;53.246;-6.670;2022-12-11T00:21:37;99342.88;;;-0.30;100.00
55916;BME280;41826;53.246;-6.670;2022-12-11T00:24:03;99338.03;;;-0.10;100.00
55916;BME280;41826;53.246;-6.670;2022-12-11T00:26:28;99337.22;;;0.13;100.00
55916;BME280;41826;53.246;-6.670;2022-12-11T00:28:54;99337.75;;;0.30;100.00
55916;BME280;41826;53.246;-6.670;2022-12-11T00:31:21;99332.84;;;0.38;100.00
55916;BME280;41826;53.246;-6.670;2022-12-11T00:33:48;99343.31;;;0.36;100.00
55916;BME280;41826;53.246;-6.670;2022-12-11T00:36:21;99352.38;;;-0.06;100.00
55916;BME280;41826;53.246;-6.670;2022-12-11T00:38:47;99346.25;;;-0.05;100.00
55916;BME280;41826;53.246;-6.670;2022-12-11T00:41:13;99337.34;;;0.12;100.00
55916;BME280;41826;53.246;-6.670;2022-12-11T00:43:42;99333.06;;;0.24;100.00
55916;BME280;41826;53.246;-6.670;2022-12-11T00:46:08;99320.06;;;0.36;100.00
55916;BME280;41826;53.246;-6.670;2022-12-11T00:48:33;99325.31;;;0.24;100.00
55916;BME280;41826;53.246;-6.670;2022-12-11T00:50:59;99330.16;;;0.28;100.00
55916;BME280;41826;53.246;-6.670;2022-12-11T00:53:24;99337.88;;;0.28;100.00
55916;BME280;41826;53.246;-6.670;2022-12-11T00:55:50;99342.97;;;0.17;100.00
55916;BME280;41826;53.246;-6.670;2022-12-11T00:58:15;99339.03;;;0.24;100.00
55916;BME280;41826;53.246;-6.670;2022-12-11T01:00:41;99332.88;;;0.14;100.00
55916;BME280;41826;53.246;-6.670;2022-12-11T01:03:08;99344.16;;;0.13;100.00
55916;BME280;41826;53.246;-6.670;2022-12-11T01:05:35;99343.94;;;0.16;100.00
55916;BME280;41826;53.246;-6.670;2022-12-11T01:08:00;99342.69;;;0.33;100.00
55916;BME280;41826;53.246;-6.670;2022-12-11T01:10:26;99336.06;;;0.17;100.00
55916;BME280;41826;53.246;-6.670;2022-12-11T01:13:00;99333.47;;;0.41;100.00
55916;BME280;41826;53.246;-6.670;2022-12-11T01:15:29;99325.25;;;0.48;100.00
55916;BME280;41826;53.246;-6.670;2022-12-11T01:17:55;99324.69;;;0.55;100.00
55916;BME280;41826;53.246;-6.670;2022-12-11T01:20:23;99320.25;;;0.57;100.00
55916;BME280;41826;53.246;-6.670;2022-12-11T01:22:52;99316.75;;;0.58;100.00
55916;BME280;41826;53.246;-6.670;2022-12-11T01:25:17;99325.88;;;0.62;100.00
55916;BME280;41826;53.246;-6.670;2022-12-11T01:27:43;99335.88;;;0.56;100.00
55916;BME280;41826;53.246;-6.670;2022-12-11T01:30:09;99344.84;;;0.39;100.00
55916;BME280;41826;53.246;-6.670;2022-12-11T01:32:35;99339.50;;;0.53;100.00
55916;BME280;41826;53.246;-6.670;2022-12-11T01:35:05;99332.19;;;0.47;100.00
55916;BME280;41826;53.246;-6.670;2022-12-11T01:37:31;99343.72;;;0.54;100.00
55916;BME280;41826;53.246;-6.670;2022-12-11T01:39:57;99338.88;;;0.50;100.00
55916;BME280;41826;53.246;-6.670;2022-12-11T01:42:22;99340.41;;;0.52;100.00
55916;BME280;41826;53.246;-6.670;2022-12-11T01:47:14;99346.38;;;0.41;100.00
55916;BME280;41826;53.246;-6.670;2022-12-11T01:49:41;99346.25;;;0.43;100.00
55916;BME280;41826;53.246;-6.670;2022-12-11T01:52:11;99349.84;;;0.29;100.00
55916;BME280;41826;53.246;-6.670;2022-12-11T01:54:40;99341.94;;;0.43;100.00
55916;BME280;41826;53.246;-6.670;2022-12-11T01:57:07;99349.09;;;0.51;100.00
55916;BME280;41826;53.246;-6.670;2022-12-11T01:59:36;99359.63;;;0.13;100.00
55916;BME280;41826;53.246;-6.670;2022-12-11T02:02:14;99362.41;;;0.34;100.00
55916;BME280;41826;53.246;-6.670;2022-12-11T02:04:43;99364.88;;;0.35;100.00
55916;BME280;41826;53.246;-6.670;2022-12-11T02:07:10;99353.88;;;0.45;100.00
55916;BME280;41826;53.246;-6.670;2022-12-11T02:09:37;99365.97;;;0.44;100.00
55916;BME280;41826;53.246;-6.670;2022-12-11T02:12:25;99367.94;;;0.40;100.00
55916;BME280;41826;53.246;-6.670;2022-12-11T02:15:35;99363.25;;;0.46;100.00
55916;BME280;41826;53.246;-6.670;2022-12-11T02:28:29;99373.63;;;0.21;100.00
55916;BME280;41826;53.246;-6.670;2022-12-11T02:36:43;99373.41;;;0.49;100.00
55916;BME280;41826;53.246;-6.670;2022-12-11T02:39:11;99379.75;;;0.56;100.00
55916;BME280;41826;53.246;-6.670;2022-12-11T02:41:45;99380.44;;;0.58;100.00
55916;BME280;41826;53.246;-6.670;2022-12-11T02:44:13;99378.09;;;0.55;100.00
55916;BME280;41826;53.246;-6.670;2022-12-11T02:46:40;99376.72;;;0.62;100.00
55916;BME280;41826;53.246;-6.670;2022-12-11T02:49:09;99380.84;;;0.64;100.00
55916;BME280;41826;53.246;-6.670;2022-12-11T02:51:39;99390.34;;;0.64;100.00
55916;BME280;41826;53.246;-6.670;2022-12-11T02:54:11;99390.34;;;0.64;100.00
55916;BME280;41826;53.246;-6.670;2022-12-11T02:56:46;99386.94;;;0.63;100.00
55916;BME280;41826;53.246;-6.670;2022-12-11T02:59:19;99394.97;;;0.48;100.00
55916;BME280;41826;53.246;-6.670;2022-12-11T03:01:46;99395.19;;;0.45;100.00
55916;BME280;41826;53.246;-6.670;2022-12-11T03:04:12;99404.03;;;0.29;100.00
55916;BME280;41826;53.246;-6.670;2022-12-11T03:06:44;99399.91;;;0.27;100.00
55916;BME280;41826;53.246;-6.670;2022-12-11T03:09:13;99394.66;;;0.28;100.00
55916;BME280;41826;53.246;-6.670;2022-12-11T03:11:38;99388.97;;;0.47;100.00
55916;BME280;41826;53.246;-6.670;2022-12-11T03:14:05;99398.38;;;0.24;100.00
55916;BME280;41826;53.246;-6.670;2022-12-11T03:16:41;99390.59;;;0.13;100.00
55916;BME280;41826;53.246;-6.670;2022-12-11T03:19:38;99390.97;;;0.19;100.00
55916;BME280;41826;53.246;-6.670;2022-12-11T03:22:36;99380.81;;;0.29;100.00
55916;BME280;41826;53.246;-6.670;2022-12-11T03:25:08;99388.72;;;0.15;100.00
55916;BME280;41826;53.246;-6.670;2022-12-11T03:27:42;99395.47;;;-0.32;100.00
55916;BME280;41826;53.246;-6.670;2022-12-11T03:30:12;99391.22;;;-0.33;100.00
55916;BME280;41826;53.246;-6.670;2022-12-11T03:32:43;99373.69;;;0.09;100.00
55916;BME280;41826;53.246;-6.670;2022-12-11T03:35:38;99379.88;;;-0.31;100.00
55916;BME280;41826;53.246;-6.670;2022-12-11T03:38:08;99386.53;;;-0.52;100.00
55916;BME280;41826;53.246;-6.670;2022-12-11T03:40:35;99365.31;;;-0.19;100.00
55916;BME280;41826;53.246;-6.670;2022-12-11T03:43:03;99369.78;;;0.03;100.00
55916;BME280;41826;53.246;-6.670;2022-12-11T03:45:31;99363.75;;;0.15;100.00
55916;BME280;41826;53.246;-6.670;2022-12-11T03:47:58;99360.66;;;0.34;100.00
55916;BME280;41826;53.246;-6.670;2022-12-11T03:50:27;99367.06;;;0.05;100.00
55916;BME280;41826;53.246;-6.670;2022-12-11T03:52:55;99372.31;;;-0.21;100.00
55916;BME280;41826;53.246;-6.670;2022-12-11T03:55:22;99374.84;;;-0.32;100.00
55916;BME280;41826;53.246;-6.670;2022-12-11T03:57:49;99374.09;;;-0.22;100.00
55916;BME280;41826;53.246;-6.670;2022-12-11T04:00:18;99369.59;;;-0.07;100.00
55916;BME280;41826;53.246;-6.670;2022-12-11T04:02:45;99388.06;;;-0.50;100.00
55916;BME280;41826;53.246;-6.670;2022-12-11T04:05:30;99392.50;;;-0.64;100.00
55916;BME280;41826;53.246;-6.670;2022-12-11T04:07:55;99388.09;;;-0.62;100.00
55916;BME280;41826;53.246;-6.670;2022-12-11T04:10:21;99381.19;;;-0.62;100.00
55916;BME280;41826;53.246;-6.670;2022-12-11T04:12:46;99380.06;;;-0.71;100.00
55916;BME280;41826;53.246;-6.670;2022-12-11T04:15:11;99371.19;;;-0.79;100.00
55916;BME280;41826;53.246;-6.670;2022-12-11T04:17:37;99368.81;;;-0.82;100.00
55916;BME280;41826;53.246;-6.670;2022-12-11T04:20:21;99367.38;;;-0.87;100.00
55916;BME280;41826;53.246;-6.670;2022-12-11T04:23:08;99353.97;;;-0.92;100.00
55916;BME280;41826;53.246;-6.670;2022-12-11T04:25:54;99357.06;;;-0.87;100.00
55916;BME280;41826;53.246;-6.670;2022-12-11T04:28:33;99361.50;;;-1.01;100.00
55916;BME280;41826;53.246;-6.670;2022-12-11T04:30:58;99356.84;;;-0.96;100.00
55916;BME280;41826;53.246;-6.670;2022-12-11T04:33:24;99355.72;;;-1.05;100.00
55916;BME280;41826;53.246;-6.670;2022-12-11T04:35:49;99355.81;;;-1.06;100.00
55916;BME280;41826;53.246;-6.670;2022-12-11T04:38:15;99341.31;;;-1.07;100.00
55916;BME280;41826;53.246;-6.670;2022-12-11T04:40:40;99335.22;;;-1.06;100.00
55916;BME280;41826;53.246;-6.670;2022-12-11T04:43:05;99334.00;;;-1.01;100.00
55916;BME280;41826;53.246;-6.670;2022-12-11T04:45:31;99330.28;;;-0.84;100.00
55916;BME280;41826;53.246;-6.670;2022-12-11T04:47:56;99321.34;;;-0.91;100.00
55916;BME280;41826;53.246;-6.670;2022-12-11T04:50:22;99327.53;;;-0.94;100.00
55916;BME280;41826;53.246;-6.670;2022-12-11T04:52:47;99320.91;;;-0.98;100.00
55916;BME280;41826;53.246;-6.670;2022-12-11T04:55:13;99311.44;;;-0.97;100.00
55916;BME280;41826;53.246;-6.670;2022-12-11T04:57:39;99311.44;;;-0.97;100.00
55916;BME280;41826;53.246;-6.670;2022-12-11T05:00:07;99303.19;;;-0.90;100.00
55916;BME280;41826;53.246;-6.670;2022-12-11T05:02:34;99291.03;;;-0.88;100.00
55916;BME280;41826;53.246;-6.670;2022-12-11T05:05:01;99286.88;;;-0.77;100.00
55916;BME280;41826;53.246;-6.670;2022-12-11T05:07:27;99287.41;;;-0.85;100.00
55916;BME280;41826;53.246;-6.670;2022-12-11T05:09:52;99291.03;;;-0.88;100.00
55916;BME280;41826;53.246;-6.670;2022-12-11T05:12:18;99295.66;;;-0.93;100.00
55916;BME280;41826;53.246;-6.670;2022-12-11T05:14:43;99304.84;;;-1.01;100.00
55916;BME280;41826;53.246;-6.670;2022-12-11T05:17:09;99296.41;;;-1.03;100.00
55916;BME280;41826;53.246;-6.670;2022-12-11T05:19:34;99286.16;;;-0.79;100.00
55916;BME280;41826;53.246;-6.670;2022-12-11T05:21:59;99278.94;;;-0.37;100.00
55916;BME280;41826;53.246;-6.670;2022-12-11T05:24:25;99279.69;;;-0.48;100.00
55916;BME280;41826;53.246;-6.670;2022-12-11T05:26:50;99276.28;;;-0.85;100.00
55916;BME280;41826;53.246;-6.670;2022-12-11T05:29:16;99297.13;;;-1.14;100.00
55916;BME280;41826;53.246;-6.670;2022-12-11T05:31:41;99289.19;;;-0.98;100.00
55916;BME280;41826;53.246;-6.670;2022-12-11T05:34:07;99289.38;;;-1.01;100.00
55916;BME280;41826;53.246;-6.670;2022-12-11T05:36:33;99283.59;;;-0.79;100.00
55916;BME280;41826;53.246;-6.670;2022-12-11T05:38:59;99289.63;;;-0.55;100.00
55916;BME280;41826;53.246;-6.670;2022-12-11T05:41:26;99290.19;;;-0.75;100.00
55916;BME280;41826;53.246;-6.670;2022-12-11T05:43:52;99293.03;;;-0.67;100.00
55916;BME280;41826;53.246;-6.670;2022-12-11T05:46:23;99288.00;;;-0.32;100.00
55916;BME280;41826;53.246;-6.670;2022-12-11T05:48:51;99300.53;;;-1.01;100.00
55916;BME280;41826;53.246;-6.670;2022-12-11T05:51:17;99289.66;;;-0.68;100.00
55916;BME280;41826;53.246;-6.670;2022-12-11T05:53:45;99291.19;;;-0.65;100.00
55916;BME280;41826;53.246;-6.670;2022-12-11T05:56:16;99301.88;;;-1.34;100.00
55916;BME280;41826;53.246;-6.670;2022-12-11T05:58:43;99298.66;;;-1.12;100.00
55916;BME280;41826;53.246;-6.670;2022-12-11T06:01:21;99297.53;;;-0.95;100.00
55916;BME280;41826;53.246;-6.670;2022-12-11T06:03:47;99294.84;;;-0.93;100.00
55916;BME280;41826;53.246;-6.670;2022-12-11T06:06:13;99296.91;;;-0.98;100.00
55916;BME280;41826;53.246;-6.670;2022-12-11T06:08:38;99301.16;;;-1.10;100.00
55916;BME280;41826;53.246;-6.670;2022-12-11T06:11:04;99308.56;;;-1.18;100.00
55916;BME280;41826;53.246;-6.670;2022-12-11T06:13:30;99302.19;;;-1.25;100.00
55916;BME280;41826;53.246;-6.670;2022-12-11T06:15:59;99312.31;;;-1.62;100.00
55916;BME280;41826;53.246;-6.670;2022-12-11T06:18:26;99304.75;;;-1.91;100.00
55916;BME280;41826;53.246;-6.670;2022-12-11T06:20:52;99314.19;;;-2.04;100.00
55916;BME280;41826;53.246;-6.670;2022-12-11T06:23:17;99319.03;;;-2.00;100.00
55916;BME280;41826;53.246;-6.670;2022-12-11T06:25:43;99329.28;;;-2.12;100.00
55916;BME280;41826;53.246;-6.670;2022-12-11T06:28:08;99323.16;;;-2.24;100.00
55916;BME280;41826;53.246;-6.670;2022-12-11T06:30:34;99325.19;;;-2.29;100.00
55916;BME280;41826;53.246;-6.670;2022-12-11T06:32:59;99325.22;;;-2.16;100.00
55916;BME280;41826;53.246;-6.670;2022-12-11T06:35:25;99307.00;;;-1.99;100.00
55916;BME280;41826;53.246;-6.670;2022-12-11T06:37:50;99306.22;;;-1.87;100.00
55916;BME280;41826;53.246;-6.670;2022-12-11T06:40:16;99297.00;;;-1.64;100.00
55916;BME280;41826;53.246;-6.670;2022-12-11T06:42:41;99300.69;;;-1.55;100.00
55916;BME280;41826;53.246;-6.670;2022-12-11T06:45:07;99305.78;;;-1.41;100.00
55916;BME280;41826;53.246;-6.670;2022-12-11T06:47:33;99311.97;;;-1.31;100.00
55916;BME280;41826;53.246;-6.670;2022-12-11T06:49:58;99311.50;;;-1.50;100.00
55916;BME280;41826;53.246;-6.670;2022-12-11T06:52:25;99303.91;;;-1.64;100.00
55916;BME280;41826;53.246;-6.670;2022-12-11T06:54:54;99324.50;;;-1.91;100.00
55916;BME280;41826;53.246;-6.670;2022-12-11T06:57:19;99321.16;;;-2.06;100.00
55916;BME280;41826;53.246;-6.670;2022-12-11T06:59:45;99336.66;;;-2.08;100.00
55916;BME280;41826;53.246;-6.670;2022-12-11T07:02:15;99325.59;;;-1.68;100.00
55916;BME280;41826;53.246;-6.670;2022-12-11T07:04:41;99322.97;;;-1.41;100.00
55916;BME280;41826;53.246;-6.670;2022-12-11T07:07:07;99330.91;;;-1.32;100.00
55916;BME280;41826;53.246;-6.670;2022-12-11T07:09:32;99325.88;;;-1.20;100.00
55916;BME280;41826;53.246;-6.670;2022-12-11T07:11:58;99331.00;;;-1.20;100.00
55916;BME280;41826;53.246;-6.670;2022-12-11T07:14:23;99341.03;;;-1.68;100.00
55916;BME280;41826;53.246;-6.670;2022-12-11T07:16:49;99356.19;;;-1.91;100.00
55916;BME280;41826;53.246;-6.670;2022-12-11T07:19:14;99356.41;;;-2.08;100.00
55916;BME280;41826;53.246;-6.670;2022-12-11T07:21:40;99364.34;;;-2.26;100.00
55916;BME280;41826;53.246;-6.670;2022-12-11T07:24:06;99361.06;;;-2.28;100.00
55916;BME280;41826;53.246;-6.670;2022-12-11T07:26:32;99371.72;;;-2.48;100.00
55916;BME280;41826;53.246;-6.670;2022-12-11T07:28:58;99362.94;;;-2.58;100.00
55916;BME280;41826;53.246;-6.670;2022-12-11T07:31:25;99364.06;;;-2.63;100.00
55916;BME280;41826;53.246;-6.670;2022-12-11T07:33:56;99358.53;;;-2.56;100.00
55916;BME280;41826;53.246;-6.670;2022-12-11T07:36:22;99355.50;;;-2.49;100.00
55916;BME280;41826;53.246;-6.670;2022-12-11T07:38:47;99358.31;;;-2.39;100.00
55916;BME280;41826;53.246;-6.670;2022-12-11T07:41:14;99354.13;;;-2.40;100.00
55916;BME280;41826;53.246;-6.670;2022-12-11T07:43:40;99354.94;;;-2.40;100.00
55916;BME280;41826;53.246;-6.670;2022-12-11T07:46:09;99364.28;;;-2.38;100.00
55916;BME280;41826;53.246;-6.670;2022-12-11T07:48:37;99365.69;;;-2.33;100.00
55916;BME280;41826;53.246;-6.670;2022-12-11T07:51:20;99366.91;;;-2.26;100.00
55916;BME280;41826;53.246;-6.670;2022-12-11T07:53:51;99372.06;;;-2.26;100.00
55916;BME280;41826;53.246;-6.670;2022-12-11T07:56:18;99362.94;;;-2.44;100.00
55916;BME280;41826;53.246;-6.670;2022-12-11T07:58:44;99370.72;;;-2.46;100.00
55916;BME280;41826;53.246;-6.670;2022-12-11T08:01:14;99361.09;;;-2.42;100.00
55916;BME280;41826;53.246;-6.670;2022-12-11T08:03:41;99375.03;;;-2.46;100.00
55916;BME280;41826;53.246;-6.670;2022-12-11T08:06:07;99373.75;;;-2.53;100.00
55916;BME280;41826;53.246;-6.670;2022-12-11T08:08:33;99375.03;;;-2.46;100.00
55916;BME280;41826;53.246;-6.670;2022-12-11T08:11:03;99370.72;;;-2.46;100.00
55916;BME280;41826;53.246;-6.670;2022-12-11T08:13:29;99361.22;;;-2.58;100.00
55916;BME280;41826;53.246;-6.670;2022-12-11T08:15:55;99381.31;;;-2.50;100.00
55916;BME280;41826;53.246;-6.670;2022-12-11T08:18:20;99377.78;;;-2.64;100.00
55916;BME280;41826;53.246;-6.670;2022-12-11T08:20:46;99387.97;;;-2.76;100.00
55916;BME280;41826;53.246;-6.670;2022-12-11T08:23:11;99387.53;;;-2.83;100.00
55916;BME280;41826;53.246;-6.670;2022-12-11T08:25:36;99384.22;;;-2.85;100.00
55916;BME280;41826;53.246;-6.670;2022-12-11T08:28:02;99383.84;;;-2.79;100.00
55916;BME280;41826;53.246;-6.670;2022-12-11T08:30:27;99389.00;;;-2.79;100.00
55916;BME280;41826;53.246;-6.670;2022-12-11T08:32:53;99387.28;;;-2.78;100.00
55916;BME280;41826;53.246;-6.670;2022-12-11T08:35:18;99381.47;;;-2.53;100.00
55916;BME280;41826;53.246;-6.670;2022-12-11T08:37:43;99388.16;;;-2.51;100.00
55916;BME280;41826;53.246;-6.670;2022-12-11T08:40:09;99398.63;;;-2.54;100.00
55916;BME280;41826;53.246;-6.670;2022-12-11T08:42:36;99396.50;;;-2.62;100.00
55916;BME280;41826;53.246;-6.670;2022-12-11T08:45:02;99396.97;;;-2.69;100.00
55916;BME280;41826;53.246;-6.670;2022-12-11T08:47:28;99398.09;;;-2.73;100.00
55916;BME280;41826;53.246;-6.670;2022-12-11T08:49:53;99408.06;;;-2.69;100.00
55916;BME280;41826;53.246;-6.670;2022-12-11T08:52:19;99406.25;;;-2.81;100.00
55916;BME280;41826;53.246;-6.670;2022-12-11T08:54:44;99413.22;;;-2.83;100.00
55916;BME280;41826;53.246;-6.670;2022-12-11T08:57:09;99410.28;;;-2.77;100.00
55916;BME280;41826;53.246;-6.670;2022-12-11T08:59:35;99407.25;;;-2.84;100.00
55916;BME280;41826;53.246;-6.670;2022-12-11T09:02:00;99409.38;;;-2.76;100.00
55916;BME280;41826;53.246;-6.670;2022-12-11T09:04:25;99406.69;;;-2.74;100.00
55916;BME280;41826;53.246;-6.670;2022-12-11T09:06:51;99406.97;;;-2.79;100.00
55916;BME280;41826;53.246;-6.670;2022-12-11T09:09:16;99421.47;;;-2.78;100.00
55916;BME280;41826;53.246;-6.670;2022-12-11T09:11:42;99412.03;;;-2.77;100.00
55916;BME280;41826;53.246;-6.670;2022-12-11T09:14:08;99417.72;;;-2.72;100.00
55916;BME280;41826;53.246;-6.670;2022-12-11T09:16:35;99421.84;;;-2.70;100.00
55916;BME280;41826;53.246;-6.670;2022-12-11T09:19:02;99420.28;;;-2.72;100.00
55916;BME280;41826;53.246;-6.670;2022-12-11T09:21:29;99422.47;;;-2.80;100.00
55916;BME280;41826;53.246;-6.670;2022-12-11T09:23:56;99421.75;;;-2.83;100.00
55916;BME280;41826;53.246;-6.670;2022-12-11T09:26:22;99430.44;;;-2.85;100.00
55916;BME280;41826;53.246;-6.670;2022-12-11T09:28:48;99435.91;;;-2.91;100.00
55916;BME280;41826;53.246;-6.670;2022-12-11T09:31:20;99428.63;;;-2.83;100.00
55916;BME280;41826;53.246;-6.670;2022-12-11T09:33:48;99428.44;;;-2.80;100.00
55916;BME280;41826;53.246;-6.670;2022-12-11T09:36:14;99430.47;;;-2.71;100.00
55916;BME280;41826;53.246;-6.670;2022-12-11T09:38:40;99426.06;;;-2.69;100.00
55916;BME280;41826;53.246;-6.670;2022-12-11T09:46:34;99413.31;;;-2.70;100.00
55916;BME280;41826;53.246;-6.670;2022-12-11T09:49:02;99414.22;;;-2.71;100.00
55916;BME280;41826;53.246;-6.670;2022-12-11T09:54:02;99402.84;;;-2.67;100.00
55916;BME280;41826;53.246;-6.670;2022-12-11T10:02:35;99400.28;;;-2.67;100.00
55916;BME280;41826;53.246;-6.670;2022-12-11T10:08:18;99407.88;;;-2.51;100.00
55916;BME280;41826;53.246;-6.670;2022-12-11T10:18:46;99402.75;;;-2.51;100.00
55916;BME280;41826;53.246;-6.670;2022-12-11T10:21:12;99408.91;;;-2.54;100.00
55916;BME280;41826;53.246;-6.670;2022-12-11T10:23:45;99414.84;;;-2.53;100.00
55916;BME280;41826;53.246;-6.670;2022-12-11T10:26:17;99411.94;;;-2.33;100.00
55916;BME280;41826;53.246;-6.670;2022-12-11T10:28:43;99413.97;;;-2.38;100.00
55916;BME280;41826;53.246;-6.670;2022-12-11T10:34:02;99411.94;;;-2.33;100.00
55916;BME280;41826;53.246;-6.670;2022-12-11T10:36:31;99418.31;;;-2.26;100.00
55916;BME280;41826;53.246;-6.670;2022-12-11T10:38:59;99414.75;;;-2.23;100.00
55916;BME280;41826;53.246;-6.670;2022-12-11T10:41:45;99411.56;;;-2.27;100.00
55916;BME280;41826;53.246;-6.670;2022-12-11T10:44:20;99408.78;;;-2.24;100.00
55916;BME280;41826;53.246;-6.670;2022-12-11T10:46:48;99404.38;;;-2.07;100.00
55916;BME280;41826;53.246;-6.670;2022-12-11T10:49:27;99408.38;;;-2.03;100.00
55916;BME280;41826;53.246;-6.670;2022-12-11T10:51:54;99418.72;;;-1.90;100.00
55916;BME280;41826;53.246;-6.670;2022-12-11T10:56:49;99436.66;;;-1.89;100.00
55916;BME280;41826;53.246;-6.670;2022-12-11T10:59:22;99436.09;;;-1.94;100.00
55916;BME280;41826;53.246;-6.670;2022-12-11T11:01:48;99452.28;;;-1.92;100.00
55916;BME280;41826;53.246;-6.670;2022-12-11T11:04:19;99433.31;;;-1.77;100.00
55916;BME280;41826;53.246;-6.670;2022-12-11T11:06:47;99432.72;;;-1.67;100.00
55916;BME280;41826;53.246;-6.670;2022-12-11T11:09:32;99431.59;;;-1.63;100.00
55916;BME280;41826;53.246;-6.670;2022-12-11T11:11:58;99423.56;;;-1.71;100.00
55916;BME280;41826;53.246;-6.670;2022-12-11T11:14:24;99414.72;;;-1.67;100.00
55916;BME280;41826;53.246;-6.670;2022-12-11T11:16:51;99413.88;;;-1.68;100.00
55916;BME280;41826;53.246;-6.670;2022-12-11T11:19:20;99412.13;;;-1.67;100.00
55916;BME280;41826;53.246;-6.670;2022-12-11T11:21:51;99411.03;;;-1.63;100.00
55916;BME280;41826;53.246;-6.670;2022-12-11T11:24:43;99411.84;;;-1.63;100.00
55916;BME280;41826;53.246;-6.670;2022-12-11T11:27:27;99411.75;;;-1.61;100.00
55916;BME280;41826;53.246;-6.670;2022-12-11T11:29:59;99408.16;;;-1.59;100.00
55916;BME280;41826;53.246;-6.670;2022-12-11T11:32:31;99399.13;;;-1.51;100.00
55916;BME280;41826;53.246;-6.670;2022-12-11T11:35:27;99393.78;;;-1.48;100.00
55916;BME280;41826;53.246;-6.670;2022-12-11T11:37:59;99397.19;;;-1.48;100.00
55916;BME280;41826;53.246;-6.670;2022-12-11T11:40:36;99387.94;;;-1.38;100.00
55916;BME280;41826;53.246;-6.670;2022-12-11T11:43:12;99390.94;;;-1.31;100.00
55916;BME280;41826;53.246;-6.670;2022-12-11T11:50:50;99398.69;;;-1.18;100.00
55916;BME280;41826;53.246;-6.670;2022-12-11T11:53:30;99404.56;;;-1.16;100.00
55916;BME280;41826;53.246;-6.670;2022-12-11T11:56:06;99402.00;;;-1.16;100.00
55916;BME280;41826;53.246;-6.670;2022-12-11T12:01:36;99410.53;;;-1.16;100.00
55916;BME280;41826;53.246;-6.670;2022-12-11T12:04:03;99414.53;;;-1.12;100.00
55916;BME280;41826;53.246;-6.670;2022-12-11T12:12:04;99422.78;;;-1.06;100.00
55916;BME280;41826;53.246;-6.670;2022-12-11T12:15:22;99429.47;;;-1.04;100.00
55916;BME280;41826;53.246;-6.670;2022-12-11T12:17:52;99428.06;;;-0.95;100.00
55916;BME280;41826;53.246;-6.670;2022-12-11T12:20:26;99421.06;;;-1.06;100.00
55916;BME280;41826;53.246;-6.670;2022-12-11T12:23:06;99422.69;;;-1.05;100.00
55916;BME280;41826;53.246;-6.670;2022-12-11T12:25:41;99418.38;;;-0.92;100.00
55916;BME280;41826;53.246;-6.670;2022-12-11T12:28:17;99407.03;;;-0.89;100.00
55916;BME280;41826;53.246;-6.670;2022-12-11T12:36:08;99416.72;;;-1.05;100.00
55916;BME280;41826;53.246;-6.670;2022-12-11T12:38:57;99402.69;;;-1.01;100.00
55916;BME280;41826;53.246;-6.670;2022-12-11T12:42:06;99394.38;;;-0.92;100.00
55916;BME280;41826;53.246;-6.670;2022-12-11T12:45:11;99392.44;;;-0.89;100.00
55916;BME280;41826;53.246;-6.670;2022-12-11T12:47:45;99392.81;;;-0.82;100.00
55916;BME280;41826;53.246;-6.670;2022-12-11T12:50:18;99396.75;;;-0.76;100.00
55916;BME280;41826;53.246;-6.670;2022-12-11T12:52:45;99395.53;;;-0.71;100.00
55916;BME280;41826;53.246;-6.670;2022-12-11T12:57:51;99393.84;;;-0.59;100.00
55916;BME280;41826;53.246;-6.670;2022-12-11T13:00:39;99407.56;;;-0.58;100.00
55916;BME280;41826;53.246;-6.670;2022-12-11T13:03:31;99410.13;;;-0.46;100.00
55916;BME280;41826;53.246;-6.670;2022-12-11T13:06:00;99407.13;;;-0.39;100.00
55916;BME280;41826;53.246;-6.670;2022-12-11T13:08:28;99406.41;;;-0.41;100.00
55916;BME280;41826;53.246;-6.670;2022-12-11T13:11:04;99422.50;;;-0.38;100.00
55916;BME280;41826;53.246;-6.670;2022-12-11T13:13:37;99419.81;;;-0.36;100.00
55916;BME280;41826;53.246;-6.670;2022-12-11T13:18:46;99429.22;;;-0.35;100.00
55916;BME280;41826;53.246;-6.670;2022-12-11T13:21:32;99436.50;;;-0.29;100.00
55916;BME280;41826;53.246;-6.670;2022-12-11T13:26:47;99444.38;;;-0.69;100.00
55916;BME280;41826;53.246;-6.670;2022-12-11T13:32:21;99438.28;;;-0.68;100.00
55916;BME280;41826;53.246;-6.670;2022-12-11T13:34:59;99430.13;;;-0.62;100.00
55916;BME280;41826;53.246;-6.670;2022-12-11T13:39:57;99425.91;;;-0.37;100.00
55916;BME280;41826;53.246;-6.670;2022-12-11T13:42:35;99421.88;;;-0.41;100.00
55916;BME280;41826;53.246;-6.670;2022-12-11T13:45:02;99423.31;;;-0.37;100.00
55916;BME280;41826;53.246;-6.670;2022-12-11T13:47:30;99423.63;;;-0.42;100.00
55916;BME280;41826;53.246;-6.670;2022-12-11T13:50:43;99417.84;;;-0.33;100.00
55916;BME280;41826;53.246;-6.670;2022-12-11T13:52:57;99418.25;;;-0.26;100.00
55916;BME280;41826;53.246;-6.670;2022-12-11T13:55:32;99427.53;;;-0.24;100.00
55916;BME280;41826;53.246;-6.670;2022-12-11T13:57:58;99429.28;;;-0.24;100.00
55916;BME280;41826;53.246;-6.670;2022-12-11T14:00:28;99425.34;;;-0.17;100.00
55916;BME280;41826;53.246;-6.670;2022-12-11T14:02:56;99425.63;;;-0.09;100.00
55916;BME280;41826;53.246;-6.670;2022-12-11T14:05:23;99422.53;;;-0.01;100.00
55916;BME280;41826;53.246;-6.670;2022-12-11T14:07:54;99418.25;;;0.11;100.00
55916;BME280;41826;53.246;-6.670;2022-12-11T14:10:23;99428.34;;;0.14;100.00
55916;BME280;41826;53.246;-6.670;2022-12-11T14:15:29;99415.69;;;0.11;100.00
55916;BME280;41826;53.246;-6.670;2022-12-11T14:17:56;99413.50;;;0.05;100.00
55916;BME280;41826;53.246;-6.670;2022-12-11T14:20:31;99414.50;;;0.15;100.00